sensor_id;sensor_type;location;lat;lon;timestamp;pressure;altitude;pressure_sealevel;temperature;humidity
10881;BME280;5493;48.884;8.338;2023-07-16T00:01:08;100125.53;;;20.84;100.00
10881;BME280;5493;48.884;8.338;2023-07-16T00:03:35;100130.25;;;20.79;100.00
10881;BME280;5493;48.884;8.338;2023-07-16T00:06:01;100136.41;;;20.94;100.00
10881;BME280;5493;48.884;8.338;2023-07-16T00:08:28;100132.38;;;20.87;100.00
10881;BME280;5493;48.884;8.338;2023-07-16T00:10:54;100112.00;;;20.93;100.00
10881;BME280;5493;48.884;8.338;2023-07-16T00:13:22;100097.22;;;20.94;100.00
10881;BME280;5493;48.884;8.338;2023-07-16T00:15:49;100087.69;;;20.86;100.00
10881;BME280;5493;48.884;8.338;2023-07-16T00:18:15;100098.34;;;20.88;100.00
10881;BME280;5493;48.884;8.338;2023-07-16T00:20:42;100067.19;;;21.02;100.00
10881;BME280;5493;48.884;8.338;2023-07-16T00:23:08;100057.41;;;20.96;100.00
10881;BME280;5493;48.884;8.338;2023-07-16T00:25:35;100064.81;;;20.96;100.00
10881;BME280;5493;48.884;8.338;2023-07-16T00:28:01;100102.97;;;20.92;100.00
10881;BME280;5493;48.884;8.338;2023-07-16T00:30:30;100077.78;;;20.90;100.00
10881;BME280;5493;48.884;8.338;2023-07-16T00:32:56;100083.09;;;20.82;100.00
10881;BME280;5493;48.884;8.338;2023-07-16T00:35:23;100093.47;;;20.85;100.00
10881;BME280;5493;48.884;8.338;2023-07-16T00:37:49;100092.50;;;20.76;100.00
10881;BME280;5493;48.884;8.338;2023-07-16T00:40:17;100109.31;;;20.64;100.00
10881;BME280;5493;48.884;8.338;2023-07-16T00:42:43;100155.34;;;20.62;100.00
10881;BME280;5493;48.884;8.338;2023-07-16T00:45:12;100143.78;;;20.41;100.00
10881;BME280;5493;48.884;8.338;2023-07-16T00:47:41;100150.78;;;20.52;100.00
10881;BME280;5493;48.884;8.338;2023-07-16T00:50:09;100138.38;;;20.36;100.00
10881;BME280;5493;48.884;8.338;2023-07-16T00:52:36;100142.72;;;20.37;100.00
10881;BME280;5493;48.884;8.338;2023-07-16T00:55:04;100145.13;;;20.10;100.00
10881;BME280;5493;48.884;8.338;2023-07-16T00:57:32;100143.97;;;20.16;100.00
10881;BME280;5493;48.884;8.338;2023-07-16T00:59:59;100137.75;;;20.05;100.00
10881;BME280;5493;48.884;8.338;2023-07-16T01:02:25;100146.38;;;20.23;100.00
10881;BME280;5493;48.884;8.338;2023-07-16T01:04:54;100159.31;;;20.12;100.00
10881;BME280;5493;48.884;8.338;2023-07-16T01:07:23;100165.59;;;20.18;100.00
10881;BME280;5493;48.884;8.338;2023-07-16T01:09:51;100156.16;;;20.00;100.00
10881;BME280;5493;48.884;8.338;2023-07-16T01:12:20;100130.03;;;20.12;100.00
10881;BME280;5493;48.884;8.338;2023-07-16T01:14:48;100115.97;;;20.24;100.00
10881;BME280;5493;48.884;8.338;2023-07-16T01:17:15;100123.59;;;20.27;100.00
10881;BME280;5493;48.884;8.338;2023-07-16T01:19:42;100138.47;;;20.21;100.00
10881;BME280;5493;48.884;8.338;2023-07-16T01:22:35;100120.13;;;20.22;100.00
10881;BME280;5493;48.884;8.338;2023-07-16T01:25:26;100124.81;;;20.16;100.00
10881;BME280;5493;48.884;8.338;2023-07-16T01:28:19;100130.22;;;19.87;100.00
10881;BME280;5493;48.884;8.338;2023-07-16T01:30:51;100118.63;;;20.00;100.00
10881;BME280;5493;48.884;8.338;2023-07-16T01:33:20;100121.09;;;19.97;100.00
10881;BME280;5493;48.884;8.338;2023-07-16T01:35:47;100122.63;;;20.13;100.00
10881;BME280;5493;48.884;8.338;2023-07-16T01:38:13;100128.72;;;20.05;100.00
10881;BME280;5493;48.884;8.338;2023-07-16T01:40:41;100134.78;;;20.02;100.00
10881;BME280;5493;48.884;8.338;2023-07-16T01:43:07;100143.63;;;19.89;100.00
10881;BME280;5493;48.884;8.338;2023-07-16T01:45:34;100144.69;;;19.93;100.00
10881;BME280;5493;48.884;8.338;2023-07-16T01:48:12;100162.31;;;19.77;100.00
10881;BME280;5493;48.884;8.338;2023-07-16T01:50:41;100160.25;;;19.53;100.00
10881;BME280;5493;48.884;8.338;2023-07-16T01:53:08;100154.91;;;19.77;100.00
10881;BME280;5493;48.884;8.338;2023-07-16T01:55:34;100168.41;;;19.63;100.00
10881;BME280;5493;48.884;8.338;2023-07-16T01:58:01;100188.34;;;19.69;100.00
10881;BME280;5493;48.884;8.338;2023-07-16T02:00:28;100166.94;;;19.81;100.00
10881;BME280;5493;48.884;8.338;2023-07-16T02:02:54;100164.88;;;19.58;100.00
10881;BME280;5493;48.884;8.338;2023-07-16T02:05:22;100165.38;;;19.70;100.00
10881;BME280;5493;48.884;8.338;2023-07-16T02:07:49;100178.47;;;19.73;100.00
10881;BME280;5493;48.884;8.338;2023-07-16T02:10:16;100180.06;;;19.79;100.00
10881;BME280;5493;48.884;8.338;2023-07-16T02:12:42;100178.75;;;19.72;100.00
10881;BME280;5493;48.884;8.338;2023-07-16T02:15:09;100178.13;;;19.85;100.00
10881;BME280;5493;48.884;8.338;2023-07-16T02:17:36;100180.31;;;19.83;100.00
10881;BME280;5493;48.884;8.338;2023-07-16T02:20:03;100182.28;;;19.77;100.00
10881;BME280;5493;48.884;8.338;2023-07-16T02:22:34;100192.41;;;19.72;100.00
10881;BME280;5493;48.884;8.338;2023-07-16T02:25:01;100190.56;;;19.67;100.00
10881;BME280;5493;48.884;8.338;2023-07-16T02:27:28;100188.75;;;19.91;100.00
10881;BME280;5493;48.884;8.338;2023-07-16T02:29:55;100189.66;;;19.77;100.00
10881;BME280;5493;48.884;8.338;2023-07-16T02:32:22;100194.81;;;19.83;100.00
10881;BME280;5493;48.884;8.338;2023-07-16T02:34:48;100198.50;;;19.63;100.00
10881;BME280;5493;48.884;8.338;2023-07-16T02:37:15;100211.28;;;19.78;100.00
10881;BME280;5493;48.884;8.338;2023-07-16T02:39:44;100209.97;;;19.71;100.00
10881;BME280;5493;48.884;8.338;2023-07-16T02:42:11;100206.88;;;19.82;100.00
10881;BME280;5493;48.884;8.338;2023-07-16T02:44:38;100208.09;;;19.56;100.00
10881;BME280;5493;48.884;8.338;2023-07-16T02:47:08;100199.66;;;19.52;100.00
10881;BME280;5493;48.884;8.338;2023-07-16T02:49:35;100201.75;;;19.65;100.00
10881;BME280;5493;48.884;8.338;2023-07-16T02:52:02;100213.28;;;19.62;100.00
10881;BME280;5493;48.884;8.338;2023-07-16T02:54:28;100218.16;;;19.71;100.00
10881;BME280;5493;48.884;8.338;2023-07-16T02:56:56;100202.63;;;19.56;100.00
10881;BME280;5493;48.884;8.338;2023-07-16T02:59:23;100199.09;;;19.50;100.00
10881;BME280;5493;48.884;8.338;2023-07-16T03:01:50;100220.34;;;19.69;100.00
10881;BME280;5493;48.884;8.338;2023-07-16T03:04:17;100225.56;;;19.65;100.00
10881;BME280;5493;48.884;8.338;2023-07-16T03:06:44;100219.56;;;19.63;100.00
10881;BME280;5493;48.884;8.338;2023-07-16T03:09:10;100210.59;;;19.52;100.00
10881;BME280;5493;48.884;8.338;2023-07-16T03:11:37;100212.25;;;19.38;100.00
10881;BME280;5493;48.884;8.338;2023-07-16T03:14:05;100215.25;;;19.47;100.00
10881;BME280;5493;48.884;8.338;2023-07-16T03:16:31;100214.69;;;19.40;100.00
10881;BME280;5493;48.884;8.338;2023-07-16T03:18:58;100216.38;;;19.31;100.00
10881;BME280;5493;48.884;8.338;2023-07-16T03:21:25;100215.28;;;19.42;100.00
10881;BME280;5493;48.884;8.338;2023-07-16T03:23:51;100212.75;;;19.50;100.00
10881;BME280;5493;48.884;8.338;2023-07-16T03:26:18;100210.88;;;19.41;100.00
10881;BME280;5493;48.884;8.338;2023-07-16T03:28:44;100216.63;;;19.44;100.00
10881;BME280;5493;48.884;8.338;2023-07-16T03:31:12;100219.38;;;19.44;100.00
10881;BME280;5493;48.884;8.338;2023-07-16T03:33:38;100233.03;;;19.49;100.00
10881;BME280;5493;48.884;8.338;2023-07-16T03:36:05;100233.31;;;19.43;100.00
10881;BME280;5493;48.884;8.338;2023-07-16T03:38:32;100245.56;;;19.55;100.00
10881;BME280;5493;48.884;8.338;2023-07-16T03:40:59;100240.94;;;19.51;100.00
10881;BME280;5493;48.884;8.338;2023-07-16T03:43:25;100248.84;;;19.57;100.00
10881;BME280;5493;48.884;8.338;2023-07-16T03:45:52;100244.41;;;19.72;100.00
10881;BME280;5493;48.884;8.338;2023-07-16T03:48:20;100257.00;;;19.73;100.00
10881;BME280;5493;48.884;8.338;2023-07-16T03:50:46;100255.91;;;19.69;100.00
10881;BME280;5493;48.884;8.338;2023-07-16T03:53:13;100255.06;;;19.78;100.00
10881;BME280;5493;48.884;8.338;2023-07-16T03:55:39;100259.97;;;19.76;100.00
10881;BME280;5493;48.884;8.338;2023-07-16T03:58:06;100252.00;;;19.85;100.00
10881;BME280;5493;48.884;8.338;2023-07-16T04:00:32;100256.78;;;19.59;100.00
10881;BME280;5493;48.884;8.338;2023-07-16T04:02:59;100252.06;;;19.75;100.00
10881;BME280;5493;48.884;8.338;2023-07-16T04:05:27;100255.91;;;19.74;100.00
10881;BME280;5493;48.884;8.338;2023-07-16T04:07:53;100263.53;;;19.82;100.00
10881;BME280;5493;48.884;8.338;2023-07-16T04:10:20;100260.16;;;19.95;100.00
10881;BME280;5493;48.884;8.338;2023-07-16T04:12:47;100271.75;;;19.82;100.00
10881;BME280;5493;48.884;8.338;2023-07-16T04:15:13;100265.91;;;19.93;100.00
10881;BME280;5493;48.884;8.338;2023-07-16T04:17:40;100265.66;;;19.90;100.00
10881;BME280;5493;48.884;8.338;2023-07-16T04:20:07;100279.06;;;19.96;100.00
10881;BME280;5493;48.884;8.338;2023-07-16T04:22:35;100281.50;;;19.98;100.00
10881;BME280;5493;48.884;8.338;2023-07-16T04:25:02;100282.56;;;20.02;100.00
10881;BME280;5493;48.884;8.338;2023-07-16T04:27:29;100281.56;;;19.88;100.00
10881;BME280;5493;48.884;8.338;2023-07-16T04:29:56;100291.41;;;19.89;100.00
10881;BME280;5493;48.884;8.338;2023-07-16T04:32:25;100286.47;;;19.91;100.00
10881;BME280;5493;48.884;8.338;2023-07-16T04:34:57;100297.97;;;19.93;100.00
10881;BME280;5493;48.884;8.338;2023-07-16T04:37:23;100296.94;;;19.74;100.00
10881;BME280;5493;48.884;8.338;2023-07-16T04:39:51;100300.19;;;19.81;100.00
10881;BME280;5493;48.884;8.338;2023-07-16T04:42:19;100306.81;;;19.64;100.00
10881;BME280;5493;48.884;8.338;2023-07-16T04:44:47;100297.72;;;19.84;100.00
10881;BME280;5493;48.884;8.338;2023-07-16T04:47:14;100298.84;;;19.68;100.00
10881;BME280;5493;48.884;8.338;2023-07-16T04:49:40;100299.94;;;19.77;100.00
10881;BME280;5493;48.884;8.338;2023-07-16T04:52:07;100311.41;;;19.79;100.00
10881;BME280;5493;48.884;8.338;2023-07-16T04:54:36;100304.63;;;19.67;100.00
10881;BME280;5493;48.884;8.338;2023-07-16T04:57:07;100313.06;;;19.75;100.00
10881;BME280;5493;48.884;8.338;2023-07-16T04:59:33;100310.03;;;19.82;100.00
10881;BME280;5493;48.884;8.338;2023-07-16T05:02:02;100310.84;;;19.87;100.00
10881;BME280;5493;48.884;8.338;2023-07-16T05:04:28;100303.44;;;19.88;100.00
10881;BME280;5493;48.884;8.338;2023-07-16T05:06:55;100306.75;;;19.85;100.00
10881;BME280;5493;48.884;8.338;2023-07-16T05:09:21;100312.63;;;20.12;100.00
10881;BME280;5493;48.884;8.338;2023-07-16T05:11:48;100303.19;;;19.79;100.00
10881;BME280;5493;48.884;8.338;2023-07-16T05:14:16;100314.41;;;19.83;100.00
10881;BME280;5493;48.884;8.338;2023-07-16T05:16:42;100313.19;;;20.14;100.00
10881;BME280;5493;48.884;8.338;2023-07-16T05:19:09;100310.06;;;20.75;100.00
10881;BME280;5493;48.884;8.338;2023-07-16T05:21:36;100315.06;;;20.68;100.00
10881;BME280;5493;48.884;8.338;2023-07-16T05:24:03;100310.75;;;20.56;100.00
10881;BME280;5493;48.884;8.338;2023-07-16T05:26:29;100312.31;;;20.68;100.00
10881;BME280;5493;48.884;8.338;2023-07-16T05:28:56;100305.63;;;20.45;100.00
10881;BME280;5493;48.884;8.338;2023-07-16T05:31:24;100315.28;;;20.27;100.00
10881;BME280;5493;48.884;8.338;2023-07-16T05:33:50;100314.16;;;20.38;100.00
10881;BME280;5493;48.884;8.338;2023-07-16T05:36:17;100319.38;;;20.40;100.00
10881;BME280;5493;48.884;8.338;2023-07-16T05:38:44;100319.06;;;20.41;100.00
10881;BME280;5493;48.884;8.338;2023-07-16T05:41:10;100328.47;;;20.25;100.00
10881;BME280;5493;48.884;8.338;2023-07-16T05:43:37;100326.31;;;20.12;100.00
10881;BME280;5493;48.884;8.338;2023-07-16T05:46:03;100336.69;;;20.20;100.00
10881;BME280;5493;48.884;8.338;2023-07-16T05:48:31;100322.13;;;20.30;100.00
10881;BME280;5493;48.884;8.338;2023-07-16T05:50:58;100318.75;;;20.48;100.00
10881;BME280;5493;48.884;8.338;2023-07-16T05:53:24;100320.69;;;20.47;100.00
10881;BME280;5493;48.884;8.338;2023-07-16T05:55:51;100329.59;;;20.14;100.00
10881;BME280;5493;48.884;8.338;2023-07-16T05:58:18;100329.69;;;20.48;100.00
10881;BME280;5493;48.884;8.338;2023-07-16T06:00:45;100322.50;;;20.96;100.00
10881;BME280;5493;48.884;8.338;2023-07-16T06:03:11;100328.63;;;21.45;100.00
10881;BME280;5493;48.884;8.338;2023-07-16T06:05:39;100318.50;;;21.93;100.00
10881;BME280;5493;48.884;8.338;2023-07-16T06:08:05;100320.78;;;22.29;100.00
10881;BME280;5493;48.884;8.338;2023-07-16T06:10:33;100313.75;;;22.60;100.00
10881;BME280;5493;48.884;8.338;2023-07-16T06:13:00;100326.97;;;22.77;100.00
10881;BME280;5493;48.884;8.338;2023-07-16T06:15:26;100330.09;;;22.89;100.00
10881;BME280;5493;48.884;8.338;2023-07-16T06:17:53;100315.75;;;22.73;100.00
10881;BME280;5493;48.884;8.338;2023-07-16T06:20:19;100319.69;;;23.18;100.00
10881;BME280;5493;48.884;8.338;2023-07-16T06:22:47;100315.59;;;23.16;100.00
10881;BME280;5493;48.884;8.338;2023-07-16T06:25:14;100313.56;;;23.67;100.00
10881;BME280;5493;48.884;8.338;2023-07-16T06:27:40;100318.31;;;24.02;100.00
10881;BME280;5493;48.884;8.338;2023-07-16T06:30:07;100317.41;;;24.07;100.00
10881;BME280;5493;48.884;8.338;2023-07-16T06:32:34;100316.31;;;23.21;100.00
10881;BME280;5493;48.884;8.338;2023-07-16T06:35:00;100320.09;;;23.71;100.00
10881;BME280;5493;48.884;8.338;2023-07-16T06:37:27;100324.97;;;23.74;100.00
10881;BME280;5493;48.884;8.338;2023-07-16T06:39:55;100331.09;;;23.85;100.00
10881;BME280;5493;48.884;8.338;2023-07-16T06:42:21;100339.63;;;23.42;100.00
10881;BME280;5493;48.884;8.338;2023-07-16T06:44:48;100335.41;;;23.91;100.00
10881;BME280;5493;48.884;8.338;2023-07-16T06:47:15;100334.53;;;23.49;100.00
10881;BME280;5493;48.884;8.338;2023-07-16T06:49:41;100335.97;;;23.15;100.00
10881;BME280;5493;48.884;8.338;2023-07-16T06:52:08;100335.78;;;23.43;100.00
10881;BME280;5493;48.884;8.338;2023-07-16T06:54:44;100349.97;;;23.32;100.00
10881;BME280;5493;48.884;8.338;2023-07-16T06:57:12;100339.97;;;23.22;100.00
10881;BME280;5493;48.884;8.338;2023-07-16T06:59:38;100338.94;;;23.64;100.00
10881;BME280;5493;48.884;8.338;2023-07-16T07:02:05;100327.34;;;23.94;100.00
10881;BME280;5493;48.884;8.338;2023-07-16T07:04:32;100329.06;;;23.90;100.00
10881;BME280;5493;48.884;8.338;2023-07-16T07:06:58;100332.34;;;24.20;100.00
10881;BME280;5493;48.884;8.338;2023-07-16T07:09:25;100335.25;;;24.37;100.00
10881;BME280;5493;48.884;8.338;2023-07-16T07:11:51;100335.28;;;24.23;100.00
10881;BME280;5493;48.884;8.338;2023-07-16T07:14:19;100335.47;;;24.13;100.00
10881;BME280;5493;48.884;8.338;2023-07-16T07:16:46;100338.28;;;24.49;100.00
10881;BME280;5493;48.884;8.338;2023-07-16T07:19:12;100348.94;;;24.28;100.00
10881;BME280;5493;48.884;8.338;2023-07-16T07:21:39;100344.88;;;24.12;100.00
10881;BME280;5493;48.884;8.338;2023-07-16T07:24:05;100350.91;;;24.14;100.00
10881;BME280;5493;48.884;8.338;2023-07-16T07:26:32;100345.84;;;24.43;100.00
10881;BME280;5493;48.884;8.338;2023-07-16T07:28:58;100354.19;;;24.16;100.00
10881;BME280;5493;48.884;8.338;2023-07-16T07:31:26;100353.94;;;24.40;100.00
10881;BME280;5493;48.884;8.338;2023-07-16T07:33:53;100352.41;;;24.20;100.00
10881;BME280;5493;48.884;8.338;2023-07-16T07:36:22;100366.59;;;24.00;100.00
10881;BME280;5493;48.884;8.338;2023-07-16T07:38:48;100359.75;;;24.11;100.00
10881;BME280;5493;48.884;8.338;2023-07-16T07:41:15;100353.03;;;24.17;100.00
10881;BME280;5493;48.884;8.338;2023-07-16T07:43:42;100361.09;;;23.73;100.00
10881;BME280;5493;48.884;8.338;2023-07-16T07:46:09;100371.06;;;24.10;100.00
10881;BME280;5493;48.884;8.338;2023-07-16T07:48:37;100358.94;;;23.05;100.00
10881;BME280;5493;48.884;8.338;2023-07-16T07:51:04;100365.84;;;22.89;100.00
10881;BME280;5493;48.884;8.338;2023-07-16T07:53:31;100367.97;;;23.11;100.00
10881;BME280;5493;48.884;8.338;2023-07-16T07:55:57;100372.44;;;22.69;100.00
10881;BME280;5493;48.884;8.338;2023-07-16T07:58:24;100372.34;;;22.55;100.00
10881;BME280;5493;48.884;8.338;2023-07-16T08:00:51;100369.16;;;22.48;100.00
10881;BME280;5493;48.884;8.338;2023-07-16T08:03:17;100371.06;;;22.72;100.00
10881;BME280;5493;48.884;8.338;2023-07-16T08:05:48;100387.69;;;22.80;100.00
10881;BME280;5493;48.884;8.338;2023-07-16T08:08:14;100369.31;;;23.27;100.00
10881;BME280;5493;48.884;8.338;2023-07-16T08:10:41;100378.72;;;23.58;100.00
10881;BME280;5493;48.884;8.338;2023-07-16T08:13:08;100358.63;;;23.25;100.00
10881;BME280;5493;48.884;8.338;2023-07-16T08:15:35;100356.19;;;23.37;100.00
10881;BME280;5493;48.884;8.338;2023-07-16T08:18:01;100359.34;;;23.77;100.00
10881;BME280;5493;48.884;8.338;2023-07-16T08:20:28;100337.22;;;23.95;100.00
10881;BME280;5493;48.884;8.338;2023-07-16T08:22:56;100351.50;;;24.74;100.00
10881;BME280;5493;48.884;8.338;2023-07-16T08:25:22;100348.75;;;24.74;100.00
10881;BME280;5493;48.884;8.338;2023-07-16T08:27:49;100352.59;;;25.09;100.00
10881;BME280;5493;48.884;8.338;2023-07-16T08:30:16;100357.28;;;25.09;100.00
10881;BME280;5493;48.884;8.338;2023-07-16T08:32:42;100354.81;;;25.52;100.00
10881;BME280;5493;48.884;8.338;2023-07-16T08:35:09;100358.06;;;25.84;100.00
10881;BME280;5493;48.884;8.338;2023-07-16T08:37:41;100354.13;;;25.77;100.00
10881;BME280;5493;48.884;8.338;2023-07-16T08:40:10;100341.00;;;26.39;100.00
10881;BME280;5493;48.884;8.338;2023-07-16T08:42:37;100349.16;;;26.44;100.00
10881;BME280;5493;48.884;8.338;2023-07-16T08:45:06;100351.75;;;26.40;100.00
10881;BME280;5493;48.884;8.338;2023-07-16T08:47:33;100357.78;;;26.51;100.00
10881;BME280;5493;48.884;8.338;2023-07-16T08:50:01;100358.31;;;26.14;100.00
10881;BME280;5493;48.884;8.338;2023-07-16T08:52:27;100357.09;;;26.37;100.00
10881;BME280;5493;48.884;8.338;2023-07-16T08:54:54;100347.06;;;27.01;100.00
10881;BME280;5493;48.884;8.338;2023-07-16T08:57:22;100348.50;;;26.99;100.00
10881;BME280;5493;48.884;8.338;2023-07-16T08:59:50;100354.03;;;27.07;100.00
10881;BME280;5493;48.884;8.338;2023-07-16T09:02:17;100356.09;;;27.53;100.00
10881;BME280;5493;48.884;8.338;2023-07-16T09:04:46;100355.94;;;27.50;100.00
10881;BME280;5493;48.884;8.338;2023-07-16T09:07:13;100347.59;;;28.55;100.00
10881;BME280;5493;48.884;8.338;2023-07-16T09:09:39;100346.06;;;27.78;100.00
10881;BME280;5493;48.884;8.338;2023-07-16T09:12:06;100344.13;;;28.37;100.00
10881;BME280;5493;48.884;8.338;2023-07-16T09:14:34;100353.34;;;27.36;100.00
10881;BME280;5493;48.884;8.338;2023-07-16T09:17:02;100355.63;;;27.34;100.00
10881;BME280;5493;48.884;8.338;2023-07-16T09:19:32;100361.00;;;27.56;100.00
10881;BME280;5493;48.884;8.338;2023-07-16T09:21:58;100354.03;;;27.07;100.00
10881;BME280;5493;48.884;8.338;2023-07-16T09:24:25;100362.84;;;27.09;100.00
10881;BME280;5493;48.884;8.338;2023-07-16T09:26:52;100369.00;;;26.72;100.00
10881;BME280;5493;48.884;8.338;2023-07-16T09:29:20;100370.13;;;26.54;100.00
10881;BME280;5493;48.884;8.338;2023-07-16T09:31:59;100365.91;;;26.56;100.00
10881;BME280;5493;48.884;8.338;2023-07-16T09:34:28;100372.06;;;26.36;100.00
10881;BME280;5493;48.884;8.338;2023-07-16T09:36:56;100359.13;;;26.14;100.00
10881;BME280;5493;48.884;8.338;2023-07-16T09:39:23;100358.44;;;25.61;100.00
10881;BME280;5493;48.884;8.338;2023-07-16T09:41:51;100366.56;;;25.97;100.00
10881;BME280;5493;48.884;8.338;2023-07-16T09:44:18;100355.94;;;26.38;100.00
10881;BME280;5493;48.884;8.338;2023-07-16T09:46:46;100366.53;;;26.36;100.00
10881;BME280;5493;48.884;8.338;2023-07-16T09:49:15;100368.50;;;25.96;100.00
10881;BME280;5493;48.884;8.338;2023-07-16T09:51:43;100374.50;;;26.29;100.00
10881;BME280;5493;48.884;8.338;2023-07-16T09:54:13;100381.13;;;25.27;100.00
10881;BME280;5493;48.884;8.338;2023-07-16T09:56:42;100371.63;;;25.41;100.00
10881;BME280;5493;48.884;8.338;2023-07-16T09:59:13;100373.34;;;25.90;100.00
10881;BME280;5493;48.884;8.338;2023-07-16T10:01:41;100371.00;;;26.88;100.00
10881;BME280;5493;48.884;8.338;2023-07-16T10:04:16;100369.19;;;26.92;100.00
10881;BME280;5493;48.884;8.338;2023-07-16T10:06:50;100376.22;;;26.90;100.00
10881;BME280;5493;48.884;8.338;2023-07-16T10:09:34;100369.81;;;26.55;100.00
10881;BME280;5493;48.884;8.338;2023-07-16T10:12:17;100375.31;;;26.29;100.00
10881;BME280;5493;48.884;8.338;2023-07-16T10:14:45;100369.81;;;27.87;100.00
10881;BME280;5493;48.884;8.338;2023-07-16T10:17:14;100374.63;;;27.61;100.00
10881;BME280;5493;48.884;8.338;2023-07-16T10:19:58;100369.13;;;27.35;100.00
10881;BME280;5493;48.884;8.338;2023-07-16T10:22:36;100361.88;;;26.97;100.00
10881;BME280;5493;48.884;8.338;2023-07-16T10:25:05;100369.88;;;26.98;100.00
10881;BME280;5493;48.884;8.338;2023-07-16T10:27:33;100354.94;;;27.63;100.00
10881;BME280;5493;48.884;8.338;2023-07-16T10:30:01;100354.94;;;28.51;100.00
10881;BME280;5493;48.884;8.338;2023-07-16T10:32:30;100360.91;;;28.11;100.00
10881;BME280;5493;48.884;8.338;2023-07-16T10:34:59;100363.72;;;28.03;100.00
10881;BME280;5493;48.884;8.338;2023-07-16T10:37:26;100366.50;;;28.03;100.00
10881;BME280;5493;48.884;8.338;2023-07-16T10:39:54;100360.63;;;27.66;100.00
10881;BME280;5493;48.884;8.338;2023-07-16T10:42:22;100356.88;;;27.62;100.00
10881;BME280;5493;48.884;8.338;2023-07-16T10:44:49;100353.06;;;26.69;100.00
10881;BME280;5493;48.884;8.338;2023-07-16T10:47:22;100345.50;;;27.47;99.47
10881;BME280;5493;48.884;8.338;2023-07-16T10:49:50;100343.59;;;27.21;98.20
10881;BME280;5493;48.884;8.338;2023-07-16T10:52:20;100352.81;;;27.60;98.07
10881;BME280;5493;48.884;8.338;2023-07-16T10:54:47;100351.84;;;27.94;95.58
10881;BME280;5493;48.884;8.338;2023-07-16T10:57:14;100345.81;;;27.62;96.37
10881;BME280;5493;48.884;8.338;2023-07-16T10:59:41;100350.34;;;27.67;98.56
10881;BME280;5493;48.884;8.338;2023-07-16T11:02:11;100347.78;;;27.36;93.19
10881;BME280;5493;48.884;8.338;2023-07-16T11:04:38;100341.13;;;27.28;94.81
10881;BME280;5493;48.884;8.338;2023-07-16T11:07:06;100339.53;;;27.10;91.42
10881;BME280;5493;48.884;8.338;2023-07-16T11:09:40;100346.34;;;27.30;93.94
10881;BME280;5493;48.884;8.338;2023-07-16T11:12:08;100343.78;;;27.16;93.11
10881;BME280;5493;48.884;8.338;2023-07-16T11:14:36;100359.91;;;26.71;94.91
10881;BME280;5493;48.884;8.338;2023-07-16T11:17:06;100359.03;;;27.39;91.04
10881;BME280;5493;48.884;8.338;2023-07-16T11:19:34;100353.22;;;27.07;96.63
10881;BME280;5493;48.884;8.338;2023-07-16T11:22:02;100340.81;;;27.21;96.02
10881;BME280;5493;48.884;8.338;2023-07-16T11:24:37;100351.38;;;27.36;93.34
10881;BME280;5493;48.884;8.338;2023-07-16T11:27:05;100338.56;;;27.23;95.09
10881;BME280;5493;48.884;8.338;2023-07-16T11:29:34;100334.53;;;26.69;94.96
10881;BME280;5493;48.884;8.338;2023-07-16T11:32:02;100347.75;;;27.62;92.30
10881;BME280;5493;48.884;8.338;2023-07-16T11:34:28;100344.47;;;27.68;87.89
10881;BME280;5493;48.884;8.338;2023-07-16T11:36:55;100343.69;;;27.42;89.77
10881;BME280;5493;48.884;8.338;2023-07-16T11:39:24;100344.97;;;27.62;87.85
10881;BME280;5493;48.884;8.338;2023-07-16T11:41:56;100356.25;;;27.39;90.42
10881;BME280;5493;48.884;8.338;2023-07-16T11:44:22;100343.69;;;27.59;92.77
10881;BME280;5493;48.884;8.338;2023-07-16T11:46:49;100342.56;;;27.43;90.29
10881;BME280;5493;48.884;8.338;2023-07-16T11:49:16;100345.69;;;27.88;89.29
10881;BME280;5493;48.884;8.338;2023-07-16T11:51:43;100335.44;;;27.25;92.94
10881;BME280;5493;48.884;8.338;2023-07-16T11:54:10;100335.88;;;27.91;92.94
10881;BME280;5493;48.884;8.338;2023-07-16T11:56:36;100335.69;;;27.58;93.30
10881;BME280;5493;48.884;8.338;2023-07-16T11:59:04;100328.69;;;27.60;88.65
10881;BME280;5493;48.884;8.338;2023-07-16T12:01:31;100319.28;;;28.20;85.94
10881;BME280;5493;48.884;8.338;2023-07-16T12:03:57;100341.75;;;27.51;90.57
10881;BME280;5493;48.884;8.338;2023-07-16T12:06:24;100336.00;;;27.65;88.36
10881;BME280;5493;48.884;8.338;2023-07-16T12:08:50;100327.16;;;27.71;87.63
10881;BME280;5493;48.884;8.338;2023-07-16T12:11:17;100332.94;;;27.96;87.63
10881;BME280;5493;48.884;8.338;2023-07-16T12:13:43;100332.81;;;27.83;85.92
10881;BME280;5493;48.884;8.338;2023-07-16T12:16:11;100331.16;;;28.50;86.60
10881;BME280;5493;48.884;8.338;2023-07-16T12:18:37;100328.69;;;27.98;83.35
10881;BME280;5493;48.884;8.338;2023-07-16T12:21:04;100327.06;;;28.26;82.02
10881;BME280;5493;48.884;8.338;2023-07-16T12:23:31;100324.81;;;28.20;85.07
10881;BME280;5493;48.884;8.338;2023-07-16T12:25:58;100317.97;;;28.67;82.69
10881;BME280;5493;48.884;8.338;2023-07-16T12:28:24;100330.53;;;28.65;82.13
10881;BME280;5493;48.884;8.338;2023-07-16T12:30:51;100315.56;;;28.36;81.05
10881;BME280;5493;48.884;8.338;2023-07-16T12:33:19;100311.44;;;28.84;79.78
10881;BME280;5493;48.884;8.338;2023-07-16T12:35:45;100310.31;;;28.85;79.63
10881;BME280;5493;48.884;8.338;2023-07-16T12:38:12;100314.09;;;28.80;78.90
10881;BME280;5493;48.884;8.338;2023-07-16T12:40:39;100300.56;;;29.12;79.23
10881;BME280;5493;48.884;8.338;2023-07-16T12:43:06;100306.41;;;28.98;80.10
10881;BME280;5493;48.884;8.338;2023-07-16T12:45:33;100298.47;;;28.76;77.42
10881;BME280;5493;48.884;8.338;2023-07-16T12:47:59;100302.78;;;29.18;74.32
10881;BME280;5493;48.884;8.338;2023-07-16T12:50:27;100297.56;;;28.63;74.92
10881;BME280;5493;48.884;8.338;2023-07-16T12:52:54;100298.16;;;29.22;77.99
10881;BME280;5493;48.884;8.338;2023-07-16T12:55:21;100295.31;;;29.31;72.27